sensor_id;sensor_type;location;lat;lon;timestamp;temperature;humidity
23053;DHT22;11694;-36.632;-64.318;2022-08-19T00:00:39;5.70;27.60
23053;DHT22;11694;-36.632;-64.318;2022-08-19T00:03:06;5.60;34.50
23053;DHT22;11694;-36.632;-64.318;2022-08-19T00:05:34;5.50;38.10
23053;DHT22;11694;-36.632;-64.318;2022-08-19T00:08:01;5.50;42.60
23053;DHT22;11694;-36.632;-64.318;2022-08-19T00:10:28;5.50;31.50
23053;DHT22;11694;-36.632;-64.318;2022-08-19T00:12:56;5.40;30.30
23053;DHT22;11694;-36.632;-64.318;2022-08-19T00:15:23;5.40;30.30
23053;DHT22;11694;-36.632;-64.318;2022-08-19T00:17:50;5.40;37.40
23053;DHT22;11694;-36.632;-64.318;2022-08-19T00:20:19;5.40;49.40
23053;DHT22;11694;-36.632;-64.318;2022-08-19T00:22:47;5.40;62.00
23053;DHT22;11694;-36.632;-64.318;2022-08-19T00:25:15;5.30;72.80
23053;DHT22;11694;-36.632;-64.318;2022-08-19T00:27:43;5.30;81.40
23053;DHT22;11694;-36.632;-64.318;2022-08-19T00:30:11;5.10;86.30
23053;DHT22;11694;-36.632;-64.318;2022-08-19T00:32:39;4.80;90.20
23053;DHT22;11694;-36.632;-64.318;2022-08-19T00:35:07;4.60;86.70
23053;DHT22;11694;-36.632;-64.318;2022-08-19T00:37:34;4.50;83.50
23053;DHT22;11694;-36.632;-64.318;2022-08-19T00:40:04;4.40;82.60
23053;DHT22;11694;-36.632;-64.318;2022-08-19T00:42:32;4.30;77.90
23053;DHT22;11694;-36.632;-64.318;2022-08-19T00:45:00;4.30;74.40
23053;DHT22;11694;-36.632;-64.318;2022-08-19T00:47:27;4.20;71.70
23053;DHT22;11694;-36.632;-64.318;2022-08-19T00:49:57;4.20;73.70
23053;DHT22;11694;-36.632;-64.318;2022-08-19T00:52:32;4.20;74.80
23053;DHT22;11694;-36.632;-64.318;2022-08-19T00:55:01;4.10;65.40
23053;DHT22;11694;-36.632;-64.318;2022-08-19T00:57:32;4.10;57.40
23053;DHT22;11694;-36.632;-64.318;2022-08-19T01:00:03;4.00;46.60
23053;DHT22;11694;-36.632;-64.318;2022-08-19T01:02:32;4.00;41.70
23053;DHT22;11694;-36.632;-64.318;2022-08-19T01:05:03;4.10;45.10
23053;DHT22;11694;-36.632;-64.318;2022-08-19T01:07:32;4.10;45.20
23053;DHT22;11694;-36.632;-64.318;2022-08-19T01:10:00;4.10;46.50
23053;DHT22;11694;-36.632;-64.318;2022-08-19T01:12:28;4.20;52.60
23053;DHT22;11694;-36.632;-64.318;2022-08-19T01:14:55;4.00;56.50
23053;DHT22;11694;-36.632;-64.318;2022-08-19T01:17:23;4.00;60.70
23053;DHT22;11694;-36.632;-64.318;2022-08-19T01:19:51;4.00;63.80
23053;DHT22;11694;-36.632;-64.318;2022-08-19T01:22:27;4.00;69.40
23053;DHT22;11694;-36.632;-64.318;2022-08-19T01:24:54;3.90;74.80
23053;DHT22;11694;-36.632;-64.318;2022-08-19T01:27:21;3.90;73.50
23053;DHT22;11694;-36.632;-64.318;2022-08-19T01:29:48;4.00;77.30
23053;DHT22;11694;-36.632;-64.318;2022-08-19T01:32:17;4.00;82.20
23053;DHT22;11694;-36.632;-64.318;2022-08-19T01:34:45;4.10;89.20
23053;DHT22;11694;-36.632;-64.318;2022-08-19T01:37:15;4.10;90.60
23053;DHT22;11694;-36.632;-64.318;2022-08-19T01:39:43;4.20;90.10
23053;DHT22;11694;-36.632;-64.318;2022-08-19T01:42:10;4.20;90.40
23053;DHT22;11694;-36.632;-64.318;2022-08-19T01:44:39;4.10;88.50
23053;DHT22;11694;-36.632;-64.318;2022-08-19T01:47:08;3.80;90.20
23053;DHT22;11694;-36.632;-64.318;2022-08-19T01:49:38;3.80;93.20
23053;DHT22;11694;-36.632;-64.318;2022-08-19T01:52:05;3.80;97.60
23053;DHT22;11694;-36.632;-64.318;2022-08-19T01:54:33;3.70;99.90
23053;DHT22;11694;-36.632;-64.318;2022-08-19T01:57:07;3.70;99.90
23053;DHT22;11694;-36.632;-64.318;2022-08-19T01:59:35;3.70;99.90
23053;DHT22;11694;-36.632;-64.318;2022-08-19T02:02:04;3.60;99.90
23053;DHT22;11694;-36.632;-64.318;2022-08-19T02:04:34;3.50;99.90
23053;DHT22;11694;-36.632;-64.318;2022-08-19T02:07:02;3.50;99.90
23053;DHT22;11694;-36.632;-64.318;2022-08-19T02:09:30;3.60;99.90
23053;DHT22;11694;-36.632;-64.318;2022-08-19T02:12:00;3.60;99.90
23053;DHT22;11694;-36.632;-64.318;2022-08-19T02:14:27;3.50;99.90
23053;DHT22;11694;-36.632;-64.318;2022-08-19T02:16:55;3.50;99.90
23053;DHT22;11694;-36.632;-64.318;2022-08-19T02:19:22;3.60;99.90
23053;DHT22;11694;-36.632;-64.318;2022-08-19T02:21:49;3.60;99.90
23053;DHT22;11694;-36.632;-64.318;2022-08-19T02:24:16;3.50;99.90
23053;DHT22;11694;-36.632;-64.318;2022-08-19T02:26:43;3.30;99.90
23053;DHT22;11694;-36.632;-64.318;2022-08-19T02:29:10;3.20;99.90
23053;DHT22;11694;-36.632;-64.318;2022-08-19T02:31:38;3.10;99.90
23053;DHT22;11694;-36.632;-64.318;2022-08-19T02:34:05;3.00;99.90
23053;DHT22;11694;-36.632;-64.318;2022-08-19T02:36:32;3.00;99.90
23053;DHT22;11694;-36.632;-64.318;2022-08-19T02:38:59;2.80;99.90
23053;DHT22;11694;-36.632;-64.318;2022-08-19T02:41:29;2.70;99.90
23053;DHT22;11694;-36.632;-64.318;2022-08-19T02:43:58;2.50;99.90
23053;DHT22;11694;-36.632;-64.318;2022-08-19T02:46:28;2.50;93.90
23053;DHT22;11694;-36.632;-64.318;2022-08-19T02:48:59;2.60;85.30
23053;DHT22;11694;-36.632;-64.318;2022-08-19T02:51:30;2.80;82.40
23053;DHT22;11694;-36.632;-64.318;2022-08-19T02:53:57;2.70;79.70
23053;DHT22;11694;-36.632;-64.318;2022-08-19T02:56:26;2.70;91.30
23053;DHT22;11694;-36.632;-64.318;2022-08-19T02:58:57;2.60;90.90
23053;DHT22;11694;-36.632;-64.318;2022-08-19T03:01:27;2.50;83.80
23053;DHT22;11694;-36.632;-64.318;2022-08-19T03:03:55;2.60;90.00
23053;DHT22;11694;-36.632;-64.318;2022-08-19T03:06:22;2.60;93.20
23053;DHT22;11694;-36.632;-64.318;2022-08-19T03:08:50;2.70;97.10
23053;DHT22;11694;-36.632;-64.318;2022-08-19T03:11:25;2.60;99.40
23053;DHT22;11694;-36.632;-64.318;2022-08-19T03:13:52;2.60;99.90
23053;DHT22;11694;-36.632;-64.318;2022-08-19T03:16:23;2.60;98.40
23053;DHT22;11694;-36.632;-64.318;2022-08-19T03:18:51;2.60;97.50
23053;DHT22;11694;-36.632;-64.318;2022-08-19T03:21:26;2.70;96.00
23053;DHT22;11694;-36.632;-64.318;2022-08-19T03:24:05;2.70;95.30
23053;DHT22;11694;-36.632;-64.318;2022-08-19T03:26:33;2.70;96.60
23053;DHT22;11694;-36.632;-64.318;2022-08-19T03:29:04;2.80;98.30
23053;DHT22;11694;-36.632;-64.318;2022-08-19T03:31:32;2.80;99.30
23053;DHT22;11694;-36.632;-64.318;2022-08-19T03:33:59;2.80;99.90
23053;DHT22;11694;-36.632;-64.318;2022-08-19T03:36:27;2.80;99.90
23053;DHT22;11694;-36.632;-64.318;2022-08-19T03:39:00;2.80;98.30
23053;DHT22;11694;-36.632;-64.318;2022-08-19T03:41:35;2.60;95.70
23053;DHT22;11694;-36.632;-64.318;2022-08-19T03:44:03;2.50;93.20
23053;DHT22;11694;-36.632;-64.318;2022-08-19T03:46:35;2.40;93.50
23053;DHT22;11694;-36.632;-64.318;2022-08-19T03:49:03;2.30;93.90
23053;DHT22;11694;-36.632;-64.318;2022-08-19T03:51:37;2.20;93.90
23053;DHT22;11694;-36.632;-64.318;2022-08-19T03:54:08;2.20;95.00
23053;DHT22;11694;-36.632;-64.318;2022-08-19T03:56:37;2.30;95.40
23053;DHT22;11694;-36.632;-64.318;2022-08-19T03:59:07;2.40;94.10
23053;DHT22;11694;-36.632;-64.318;2022-08-19T04:01:35;2.40;94.30
23053;DHT22;11694;-36.632;-64.318;2022-08-19T04:04:03;2.30;95.70
23053;DHT22;11694;-36.632;-64.318;2022-08-19T04:06:32;2.30;97.80
23053;DHT22;11694;-36.632;-64.318;2022-08-19T04:09:03;2.30;99.90
23053;DHT22;11694;-36.632;-64.318;2022-08-19T04:11:42;2.30;99.90
23053;DHT22;11694;-36.632;-64.318;2022-08-19T04:14:11;2.30;99.90
23053;DHT22;11694;-36.632;-64.318;2022-08-19T04:16:39;2.30;99.90
23053;DHT22;11694;-36.632;-64.318;2022-08-19T04:19:06;2.30;99.90
23053;DHT22;11694;-36.632;-64.318;2022-08-19T04:21:34;2.30;99.90
23053;DHT22;11694;-36.632;-64.318;2022-08-19T04:24:02;2.40;99.90
23053;DHT22;11694;-36.632;-64.318;2022-08-19T04:26:32;2.40;99.90
23053;DHT22;11694;-36.632;-64.318;2022-08-19T04:29:11;2.40;99.90
23053;DHT22;11694;-36.632;-64.318;2022-08-19T04:31:40;2.40;99.90
23053;DHT22;11694;-36.632;-64.318;2022-08-19T04:34:10;2.40;99.90
23053;DHT22;11694;-36.632;-64.318;2022-08-19T04:36:38;2.50;99.90
23053;DHT22;11694;-36.632;-64.318;2022-08-19T04:39:14;2.50;99.90
23053;DHT22;11694;-36.632;-64.318;2022-08-19T04:41:42;2.50;98.70
23053;DHT22;11694;-36.632;-64.318;2022-08-19T04:44:27;2.40;97.40
23053;DHT22;11694;-36.632;-64.318;2022-08-19T04:46:57;2.30;94.50
23053;DHT22;11694;-36.632;-64.318;2022-08-19T04:49:24;2.20;93.20
23053;DHT22;11694;-36.632;-64.318;2022-08-19T04:51:53;2.10;92.60
23053;DHT22;11694;-36.632;-64.318;2022-08-19T04:54:22;2.10;93.60
23053;DHT22;11694;-36.632;-64.318;2022-08-19T04:56:52;2.00;91.80
23053;DHT22;11694;-36.632;-64.318;2022-08-19T04:59:20;1.90;91.10
23053;DHT22;11694;-36.632;-64.318;2022-08-19T05:01:48;1.90;88.10
23053;DHT22;11694;-36.632;-64.318;2022-08-19T05:04:17;1.80;82.70
23053;DHT22;11694;-36.632;-64.318;2022-08-19T05:06:46;1.90;79.70
23053;DHT22;11694;-36.632;-64.318;2022-08-19T05:09:14;1.90;81.80
23053;DHT22;11694;-36.632;-64.318;2022-08-19T05:11:43;1.90;82.60
23053;DHT22;11694;-36.632;-64.318;2022-08-19T05:14:11;1.90;77.30
23053;DHT22;11694;-36.632;-64.318;2022-08-19T05:16:40;1.90;75.60
23053;DHT22;11694;-36.632;-64.318;2022-08-19T05:19:07;1.80;72.60
23053;DHT22;11694;-36.632;-64.318;2022-08-19T05:21:52;1.70;71.90
23053;DHT22;11694;-36.632;-64.318;2022-08-19T05:24:38;1.70;75.10
23053;DHT22;11694;-36.632;-64.318;2022-08-19T05:27:05;1.70;75.30
23053;DHT22;11694;-36.632;-64.318;2022-08-19T05:29:33;1.70;77.50
23053;DHT22;11694;-36.632;-64.318;2022-08-19T05:32:05;1.70;75.90
23053;DHT22;11694;-36.632;-64.318;2022-08-19T05:34:36;1.70;76.60
23053;DHT22;11694;-36.632;-64.318;2022-08-19T05:37:04;1.70;75.90
23053;DHT22;11694;-36.632;-64.318;2022-08-19T05:39:40;1.70;72.00
23053;DHT22;11694;-36.632;-64.318;2022-08-19T05:42:12;1.60;72.90
23053;DHT22;11694;-36.632;-64.318;2022-08-19T05:44:42;1.60;82.30
23053;DHT22;11694;-36.632;-64.318;2022-08-19T05:47:14;1.60;79.40
23053;DHT22;11694;-36.632;-64.318;2022-08-19T05:49:42;1.60;71.80
23053;DHT22;11694;-36.632;-64.318;2022-08-19T05:52:12;1.60;67.30
23053;DHT22;11694;-36.632;-64.318;2022-08-19T05:54:42;1.80;51.60
23053;DHT22;11694;-36.632;-64.318;2022-08-19T05:57:10;1.90;51.60
23053;DHT22;11694;-36.632;-64.318;2022-08-19T05:59:37;1.90;61.00
23053;DHT22;11694;-36.632;-64.318;2022-08-19T06:02:05;1.90;69.90
23053;DHT22;11694;-36.632;-64.318;2022-08-19T06:04:33;1.90;74.60
23053;DHT22;11694;-36.632;-64.318;2022-08-19T06:07:00;1.80;78.30
23053;DHT22;11694;-36.632;-64.318;2022-08-19T06:09:28;1.80;79.60
23053;DHT22;11694;-36.632;-64.318;2022-08-19T06:11:58;1.80;85.00
23053;DHT22;11694;-36.632;-64.318;2022-08-19T06:14:32;1.90;59.80
23053;DHT22;11694;-36.632;-64.318;2022-08-19T06:17:01;2.00;52.00
23053;DHT22;11694;-36.632;-64.318;2022-08-19T06:19:29;1.90;51.90
23053;DHT22;11694;-36.632;-64.318;2022-08-19T06:21:58;1.80;46.30
23053;DHT22;11694;-36.632;-64.318;2022-08-19T06:24:28;1.70;43.50
23053;DHT22;11694;-36.632;-64.318;2022-08-19T06:26:57;1.60;37.60
23053;DHT22;11694;-36.632;-64.318;2022-08-19T06:29:26;1.70;37.80
23053;DHT22;11694;-36.632;-64.318;2022-08-19T06:31:56;1.70;33.50
23053;DHT22;11694;-36.632;-64.318;2022-08-19T06:34:25;1.70;35.00
23053;DHT22;11694;-36.632;-64.318;2022-08-19T06:36:55;1.70;40.30
23053;DHT22;11694;-36.632;-64.318;2022-08-19T06:39:25;1.70;45.10
23053;DHT22;11694;-36.632;-64.318;2022-08-19T06:41:56;1.60;42.80
23053;DHT22;11694;-36.632;-64.318;2022-08-19T06:44:26;1.80;25.80
23053;DHT22;11694;-36.632;-64.318;2022-08-19T06:46:54;2.00;24.90
23053;DHT22;11694;-36.632;-64.318;2022-08-19T06:49:22;2.20;27.40
23053;DHT22;11694;-36.632;-64.318;2022-08-19T06:51:50;2.10;36.30
23053;DHT22;11694;-36.632;-64.318;2022-08-19T06:54:18;2.00;51.80
23053;DHT22;11694;-36.632;-64.318;2022-08-19T06:56:45;1.90;56.60
23053;DHT22;11694;-36.632;-64.318;2022-08-19T06:59:18;1.80;45.40
23053;DHT22;11694;-36.632;-64.318;2022-08-19T07:01:50;1.80;32.30
23053;DHT22;11694;-36.632;-64.318;2022-08-19T07:04:21;2.00;19.00
23053;DHT22;11694;-36.632;-64.318;2022-08-19T07:06:50;2.10;12.50
23053;DHT22;11694;-36.632;-64.318;2022-08-19T07:09:18;2.20;8.80
23053;DHT22;11694;-36.632;-64.318;2022-08-19T07:11:50;2.00;11.00
23053;DHT22;11694;-36.632;-64.318;2022-08-19T07:14:22;2.00;3.40
23053;DHT22;11694;-36.632;-64.318;2022-08-19T07:16:51;2.20;1.00
23053;DHT22;11694;-36.632;-64.318;2022-08-19T07:19:19;2.40;1.00
23053;DHT22;11694;-36.632;-64.318;2022-08-19T07:21:48;2.50;1.00
23053;DHT22;11694;-36.632;-64.318;2022-08-19T07:24:17;2.60;1.00
23053;DHT22;11694;-36.632;-64.318;2022-08-19T07:26:45;2.60;1.00
23053;DHT22;11694;-36.632;-64.318;2022-08-19T07:29:12;2.60;1.00
23053;DHT22;11694;-36.632;-64.318;2022-08-19T07:31:40;2.70;1.00
23053;DHT22;11694;-36.632;-64.318;2022-08-19T07:34:08;2.60;1.00
23053;DHT22;11694;-36.632;-64.318;2022-08-19T07:36:38;2.70;1.00
23053;DHT22;11694;-36.632;-64.318;2022-08-19T07:39:10;2.60;1.00
23053;DHT22;11694;-36.632;-64.318;2022-08-19T07:41:37;2.60;1.00
23053;DHT22;11694;-36.632;-64.318;2022-08-19T07:44:06;2.50;1.00
23053;DHT22;11694;-36.632;-64.318;2022-08-19T07:46:43;2.40;1.00
23053;DHT22;11694;-36.632;-64.318;2022-08-19T07:49:12;2.30;1.00
23053;DHT22;11694;-36.632;-64.318;2022-08-19T07:51:52;2.30;1.00
23053;DHT22;11694;-36.632;-64.318;2022-08-19T07:54:20;2.20;1.00
23053;DHT22;11694;-36.632;-64.318;2022-08-19T07:56:48;2.40;1.00
23053;DHT22;11694;-36.632;-64.318;2022-08-19T07:59:18;2.40;1.00
23053;DHT22;11694;-36.632;-64.318;2022-08-19T08:01:47;2.50;1.00
23053;DHT22;11694;-36.632;-64.318;2022-08-19T08:04:15;2.50;1.00
23053;DHT22;11694;-36.632;-64.318;2022-08-19T08:07:01;2.50;1.00
23053;DHT22;11694;-36.632;-64.318;2022-08-19T08:09:46;2.40;1.00
23053;DHT22;11694;-36.632;-64.318;2022-08-19T08:12:21;2.20;1.00
23053;DHT22;11694;-36.632;-64.318;2022-08-19T08:14:54;1.80;1.50
23053;DHT22;11694;-36.632;-64.318;2022-08-19T08:17:23;1.70;1.00
23053;DHT22;11694;-36.632;-64.318;2022-08-19T08:19:51;1.60;4.10
23053;DHT22;11694;-36.632;-64.318;2022-08-19T08:22:20;1.50;6.80
23053;DHT22;11694;-36.632;-64.318;2022-08-19T08:25:16;1.50;10.50
23053;DHT22;11694;-36.632;-64.318;2022-08-19T08:27:45;1.40;14.40
23053;DHT22;11694;-36.632;-64.318;2022-08-19T08:30:21;1.50;17.10
23053;DHT22;11694;-36.632;-64.318;2022-08-19T08:32:49;1.50;19.30
23053;DHT22;11694;-36.632;-64.318;2022-08-19T08:35:21;1.40;22.30
23053;DHT22;11694;-36.632;-64.318;2022-08-19T08:37:51;1.40;24.30
23053;DHT22;11694;-36.632;-64.318;2022-08-19T08:40:20;1.40;32.70
23053;DHT22;11694;-36.632;-64.318;2022-08-19T08:45:41;1.30;46.60
23053;DHT22;11694;-36.632;-64.318;2022-08-19T08:48:23;1.20;50.20
23053;DHT22;11694;-36.632;-64.318;2022-08-19T08:50:53;1.10;51.90
23053;DHT22;11694;-36.632;-64.318;2022-08-19T08:53:23;1.20;49.30
23053;DHT22;11694;-36.632;-64.318;2022-08-19T08:55:52;1.30;44.90
23053;DHT22;11694;-36.632;-64.318;2022-08-19T08:58:49;1.30;48.40
23053;DHT22;11694;-36.632;-64.318;2022-08-19T09:01:18;1.30;46.30
23053;DHT22;11694;-36.632;-64.318;2022-08-19T09:03:46;1.20;51.80
23053;DHT22;11694;-36.632;-64.318;2022-08-19T09:11:47;1.10;41.20
23053;DHT22;11694;-36.632;-64.318;2022-08-19T09:14:39;1.10;35.50
23053;DHT22;11694;-36.632;-64.318;2022-08-19T09:17:09;1.40;29.30
23053;DHT22;11694;-36.632;-64.318;2022-08-19T09:19:57;1.50;24.00
23053;DHT22;11694;-36.632;-64.318;2022-08-19T09:22:26;1.50;21.80
23053;DHT22;11694;-36.632;-64.318;2022-08-19T09:24:54;1.30;26.90
23053;DHT22;11694;-36.632;-64.318;2022-08-19T09:27:22;1.30;24.80
23053;DHT22;11694;-36.632;-64.318;2022-08-19T09:29:53;1.50;18.50
23053;DHT22;11694;-36.632;-64.318;2022-08-19T09:32:22;1.70;12.20
23053;DHT22;11694;-36.632;-64.318;2022-08-19T09:34:49;1.90;7.50
23053;DHT22;11694;-36.632;-64.318;2022-08-19T09:37:19;2.00;2.50
23053;DHT22;11694;-36.632;-64.318;2022-08-19T09:39:46;2.10;1.00
23053;DHT22;11694;-36.632;-64.318;2022-08-19T09:42:13;2.20;1.00
23053;DHT22;11694;-36.632;-64.318;2022-08-19T09:44:41;2.30;1.00
23053;DHT22;11694;-36.632;-64.318;2022-08-19T09:47:09;2.30;1.00
23053;DHT22;11694;-36.632;-64.318;2022-08-19T09:49:37;2.30;1.00
23053;DHT22;11694;-36.632;-64.318;2022-08-19T09:52:08;2.50;1.00
23053;DHT22;11694;-36.632;-64.318;2022-08-19T09:54:35;2.40;1.00
23053;DHT22;11694;-36.632;-64.318;2022-08-19T09:57:02;2.40;1.00
23053;DHT22;11694;-36.632;-64.318;2022-08-19T09:59:29;2.40;1.00
23053;DHT22;11694;-36.632;-64.318;2022-08-19T10:01:56;2.20;1.00
23053;DHT22;11694;-36.632;-64.318;2022-08-19T10:04:24;2.10;1.90
23053;DHT22;11694;-36.632;-64.318;2022-08-19T10:07:10;1.90;12.20
23053;DHT22;11694;-36.632;-64.318;2022-08-19T10:09:38;1.90;7.00
23053;DHT22;11694;-36.632;-64.318;2022-08-19T10:12:08;2.00;1.00
23053;DHT22;11694;-36.632;-64.318;2022-08-19T10:14:35;2.10;1.00
23053;DHT22;11694;-36.632;-64.318;2022-08-19T10:17:03;2.10;1.00
23053;DHT22;11694;-36.632;-64.318;2022-08-19T10:19:30;2.10;1.00
23053;DHT22;11694;-36.632;-64.318;2022-08-19T10:22:06;2.20;1.00
23053;DHT22;11694;-36.632;-64.318;2022-08-19T10:24:34;2.10;1.00
23053;DHT22;11694;-36.632;-64.318;2022-08-19T10:27:02;2.10;1.00
23053;DHT22;11694;-36.632;-64.318;2022-08-19T10:29:30;2.10;1.00
23053;DHT22;11694;-36.632;-64.318;2022-08-19T10:32:02;2.10;1.00
23053;DHT22;11694;-36.632;-64.318;2022-08-19T10:34:31;2.20;1.00
23053;DHT22;11694;-36.632;-64.318;2022-08-19T10:36:58;2.20;1.00
23053;DHT22;11694;-36.632;-64.318;2022-08-19T10:39:27;2.20;1.00
23053;DHT22;11694;-36.632;-64.318;2022-08-19T10:41:57;2.20;1.00
23053;DHT22;11694;-36.632;-64.318;2022-08-19T10:44:25;2.20;1.00
23053;DHT22;11694;-36.632;-64.318;2022-08-19T10:46:52;2.30;1.00
23053;DHT22;11694;-36.632;-64.318;2022-08-19T10:49:19;2.40;1.00
23053;DHT22;11694;-36.632;-64.318;2022-08-19T10:51:46;2.40;1.00
23053;DHT22;11694;-36.632;-64.318;2022-08-19T10:54:33;2.50;1.00
23053;DHT22;11694;-36.632;-64.318;2022-08-19T10:57:18;2.60;1.00
23053;DHT22;11694;-36.632;-64.318;2022-08-19T10:59:45;2.50;1.00
23053;DHT22;11694;-36.632;-64.318;2022-08-19T11:02:13;2.60;1.00
23053;DHT22;11694;-36.632;-64.318;2022-08-19T11:04:41;2.50;1.00
23053;DHT22;11694;-36.632;-64.318;2022-08-19T11:07:08;2.50;1.00
23053;DHT22;11694;-36.632;-64.318;2022-08-19T11:09:41;2.60;1.00
23053;DHT22;11694;-36.632;-64.318;2022-08-19T11:12:09;2.50;1.00
23053;DHT22;11694;-36.632;-64.318;2022-08-19T11:14:39;2.40;1.00
23053;DHT22;11694;-36.632;-64.318;2022-08-19T11:17:06;2.40;1.00
23053;DHT22;11694;-36.632;-64.318;2022-08-19T11:19:34;2.60;1.00
23053;DHT22;11694;-36.632;-64.318;2022-08-19T11:22:01;2.80;1.00
23053;DHT22;11694;-36.632;-64.318;2022-08-19T11:24:30;3.10;1.00
23053;DHT22;11694;-36.632;-64.318;2022-08-19T11:27:05;3.30;1.00
23053;DHT22;11694;-36.632;-64.318;2022-08-19T11:29:34;3.40;1.00
23053;DHT22;11694;-36.632;-64.318;2022-08-19T11:32:05;4.20;1.00
23053;DHT22;11694;-36.632;-64.318;2022-08-19T11:34:32;5.00;1.00
23053;DHT22;11694;-36.632;-64.318;2022-08-19T11:37:02;5.60;1.00
23053;DHT22;11694;-36.632;-64.318;2022-08-19T11:39:31;6.20;1.00
23053;DHT22;11694;-36.632;-64.318;2022-08-19T11:41:59;6.50;1.00
23053;DHT22;11694;-36.632;-64.318;2022-08-19T11:44:26;7.00;1.00
23053;DHT22;11694;-36.632;-64.318;2022-08-19T11:46:56;7.50;99.90
23053;DHT22;11694;-36.632;-64.318;2022-08-19T11:49:24;7.90;99.90
23053;DHT22;11694;-36.632;-64.318;2022-08-19T11:51:51;8.30;99.90
23053;DHT22;11694;-36.632;-64.318;2022-08-19T11:54:18;8.60;99.90
23053;DHT22;11694;-36.632;-64.318;2022-08-19T11:56:45;9.00;99.90
23053;DHT22;11694;-36.632;-64.318;2022-08-19T11:59:14;9.50;99.90
23053;DHT22;11694;-36.632;-64.318;2022-08-19T12:01:41;9.90;99.90
23053;DHT22;11694;-36.632;-64.318;2022-08-19T12:04:09;10.10;99.90
23053;DHT22;11694;-36.632;-64.318;2022-08-19T12:06:38;10.40;99.90
23053;DHT22;11694;-36.632;-64.318;2022-08-19T12:09:07;10.40;99.90
23053;DHT22;11694;-36.632;-64.318;2022-08-19T12:11:36;10.60;99.90
23053;DHT22;11694;-36.632;-64.318;2022-08-19T12:14:04;10.40;99.90
23053;DHT22;11694;-36.632;-64.318;2022-08-19T12:16:33;10.50;99.90
23053;DHT22;11694;-36.632;-64.318;2022-08-19T12:19:01;10.70;99.90
23053;DHT22;11694;-36.632;-64.318;2022-08-19T12:21:32;10.60;99.90
23053;DHT22;11694;-36.632;-64.318;2022-08-19T12:24:01;10.90;99.90
23053;DHT22;11694;-36.632;-64.318;2022-08-19T12:26:29;11.40;99.90
23053;DHT22;11694;-36.632;-64.318;2022-08-19T12:28:57;11.20;99.90
23053;DHT22;11694;-36.632;-64.318;2022-08-19T12:31:27;11.30;99.90
23053;DHT22;11694;-36.632;-64.318;2022-08-19T12:33:54;11.60;99.90
23053;DHT22;11694;-36.632;-64.318;2022-08-19T12:36:22;11.60;99.90
23053;DHT22;11694;-36.632;-64.318;2022-08-19T12:38:50;11.70;99.90
23053;DHT22;11694;-36.632;-64.318;2022-08-19T12:41:18;11.90;99.90
23053;DHT22;11694;-36.632;-64.318;2022-08-19T12:43:48;12.00;99.90
23053;DHT22;11694;-36.632;-64.318;2022-08-19T12:46:17;11.80;99.90
23053;DHT22;11694;-36.632;-64.318;2022-08-19T12:49:18;11.80;99.90
23053;DHT22;11694;-36.632;-64.318;2022-08-19T12:51:48;12.10;99.90
23053;DHT22;11694;-36.632;-64.318;2022-08-19T12:54:15;12.40;99.90
23053;DHT22;11694;-36.632;-64.318;2022-08-19T12:56:42;12.50;99.90
23053;DHT22;11694;-36.632;-64.318;2022-08-19T12:59:11;12.80;99.90
23053;DHT22;11694;-36.632;-64.318;2022-08-19T13:01:38;13.00;99.90
23053;DHT22;11694;-36.632;-64.318;2022-08-19T13:04:05;13.10;99.90
23053;DHT22;11694;-36.632;-64.318;2022-08-19T13:06:32;13.30;99.90
23053;DHT22;11694;-36.632;-64.318;2022-08-19T13:08:59;13.10;99.90
23053;DHT22;11694;-36.632;-64.318;2022-08-19T13:11:27;13.00;99.90
23053;DHT22;11694;-36.632;-64.318;2022-08-19T13:13:59;13.10;99.90
23053;DHT22;11694;-36.632;-64.318;2022-08-19T13:16:26;13.30;99.90
23053;DHT22;11694;-36.632;-64.318;2022-08-19T13:18:55;13.70;99.30
23053;DHT22;11694;-36.632;-64.318;2022-08-19T13:21:24;14.30;97.90
23053;DHT22;11694;-36.632;-64.318;2022-08-19T13:23:52;15.00;96.50
23053;DHT22;11694;-36.632;-64.318;2022-08-19T13:26:20;15.20;72.20
23053;DHT22;11694;-36.632;-64.318;2022-08-19T13:28:48;15.20;66.60
23053;DHT22;11694;-36.632;-64.318;2022-08-19T13:31:35;15.10;59.90
23053;DHT22;11694;-36.632;-64.318;2022-08-19T13:34:30;15.10;64.50
23053;DHT22;11694;-36.632;-64.318;2022-08-19T13:36:58;15.30;57.90
23053;DHT22;11694;-36.632;-64.318;2022-08-19T13:39:26;15.50;58.90
23053;DHT22;11694;-36.632;-64.318;2022-08-19T13:41:53;15.70;49.50
23053;DHT22;11694;-36.632;-64.318;2022-08-19T13:44:21;15.70;40.30
23053;DHT22;11694;-36.632;-64.318;2022-08-19T13:46:48;15.70;43.60
23053;DHT22;11694;-36.632;-64.318;2022-08-19T13:49:18;15.90;45.10
23053;DHT22;11694;-36.632;-64.318;2022-08-19T13:51:46;16.10;39.10
23053;DHT22;11694;-36.632;-64.318;2022-08-19T13:54:13;16.50;36.20
23053;DHT22;11694;-36.632;-64.318;2022-08-19T13:56:43;16.70;38.80
23053;DHT22;11694;-36.632;-64.318;2022-08-19T13:59:11;17.20;33.90
23053;DHT22;11694;-36.632;-64.318;2022-08-19T14:01:39;17.60;32.30
23053;DHT22;11694;-36.632;-64.318;2022-08-19T14:04:06;18.10;35.30
23053;DHT22;11694;-36.632;-64.318;2022-08-19T14:06:34;18.10;23.00
23053;DHT22;11694;-36.632;-64.318;2022-08-19T14:09:01;17.80;20.50
23053;DHT22;11694;-36.632;-64.318;2022-08-19T14:11:29;17.60;22.00
23053;DHT22;11694;-36.632;-64.318;2022-08-19T14:13:56;17.60;21.00
23053;DHT22;11694;-36.632;-64.318;2022-08-19T14:16:24;17.50;19.70
23053;DHT22;11694;-36.632;-64.318;2022-08-19T14:18:51;17.60;20.20
23053;DHT22;11694;-36.632;-64.318;2022-08-19T14:21:21;17.70;20.40
23053;DHT22;11694;-36.632;-64.318;2022-08-19T14:23:50;18.00;19.90
23053;DHT22;11694;-36.632;-64.318;2022-08-19T14:26:18;18.50;20.60
23053;DHT22;11694;-36.632;-64.318;2022-08-19T14:28:46;18.80;17.10
23053;DHT22;11694;-36.632;-64.318;2022-08-19T14:31:15;19.00;19.10
23053;DHT22;11694;-36.632;-64.318;2022-08-19T14:33:46;19.50;16.70
23053;DHT22;11694;-36.632;-64.318;2022-08-19T14:36:14;19.50;12.90
23053;DHT22;11694;-36.632;-64.318;2022-08-19T14:38:42;19.70;16.90
23053;DHT22;11694;-36.632;-64.318;2022-08-19T14:41:22;20.10;13.70
23053;DHT22;11694;-36.632;-64.318;2022-08-19T14:43:51;20.00;9.90
23053;DHT22;11694;-36.632;-64.318;2022-08-19T14:46:22;20.10;9.90
23053;DHT22;11694;-36.632;-64.318;2022-08-19T14:48:50;20.20;9.30
23053;DHT22;11694;-36.632;-64.318;2022-08-19T14:51:19;20.30;9.60
23053;DHT22;11694;-36.632;-64.318;2022-08-19T14:53:46;20.60;9.20
23053;DHT22;11694;-36.632;-64.318;2022-08-19T14:56:19;20.80;7.90
23053;DHT22;11694;-36.632;-64.318;2022-08-19T14:58:46;20.60;6.70
23053;DHT22;11694;-36.632;-64.318;2022-08-19T15:01:18;20.90;9.00
23053;DHT22;11694;-36.632;-64.318;2022-08-19T15:03:49;21.10;6.60
23053;DHT22;11694;-36.632;-64.318;2022-08-19T15:06:19;21.20;5.90
23053;DHT22;11694;-36.632;-64.318;2022-08-19T15:08:46;21.20;7.30
23053;DHT22;11694;-36.632;-64.318;2022-08-19T15:11:16;21.20;4.30
23053;DHT22;11694;-36.632;-64.318;2022-08-19T15:13:44;21.40;4.50
23053;DHT22;11694;-36.632;-64.318;2022-08-19T15:16:14;21.50;5.60
23053;DHT22;11694;-36.632;-64.318;2022-08-19T15:18:42;22.10;6.70
23053;DHT22;11694;-36.632;-64.318;2022-08-19T15:21:12;22.30;5.40
23053;DHT22;11694;-36.632;-64.318;2022-08-19T15:23:40;22.60;4.50
23053;DHT22;11694;-36.632;-64.318;2022-08-19T15:26:07;22.80;4.50